Petersburg, Tennessee
Current Conditions -  °F | °C
As of 12:55 PM on Monday 20 Oct 2014 (Local Time) from KFYM Reporting Station
Clear Clear  
Wind Chill: 64°   Ceiling: Unl
Heat Index: 64°   Visibility: 10mi
Dew Point: 46°   Wind: 22mph
Humidity: 52%   Direction: 260°W
Pressure: 30.05"   Gusts: 38mph
Location:  35.32°N, 86.64°W
Report Text: KFYM 201755Z AUTO 26019G33KT 210V290 10SM CLR 18/08 A3005 RMK
Loading
Personal Weather Stations






























Interactive Weather Map
Tropical Storm Tracking
New forecast layout! Learn more

10-Day Weather Forecast

Advertisements
Track Severe Weather on mobile